Cary, NC (27519)

2:02 AM EDT on July 07, 2015 (GMT -0400)
Royal Oaks | | Change Station
CLOSE
Current Station
Personal Weather Station
Location: Cary, NC
Elevation: 456 ft
Nearby Weather Stations

Elev 456 ft 35.80 °N, 78.77 °W | Updated 22 seconds ago

Partly Cloudy
Partly Cloudy
73.4 °F
Feels Like 72 °F
N
0.0
Wind Variable Wind from SW
Gusts 0.0 mph

Today
High -- | Low -- °F
--% Chance of Precip.
Yesterday
High -- | Low -- °F
Precip. -- in
6:05 AM 8:34 PM
Waning Gibbous, 68% visible
Pressure 30.06 in
Visibility 10.0 miles
Clouds Few 4000 ft
Scattered Clouds 7500 ft
Scattered Clouds 12000 ft
Heat Index 72 °F
Dew Point 70 °F
Humidity 88%
Rainfall 0.00 in
Snow Depth Not available.
UV 0.0 out of 12
Pollen 2.70 out of 12
Air Quality Not available.
Flu Activity Not available.
METAR KRDU 070551Z 22005KT 10SM FEW040 SCT075 SCT120 23/19 A3008 RMK AO2 SLP180 T02330189 10289 20228 58002 $

More Conditions Fewer Conditions

Pressure 30.06 in
Visibility 10.0 miles
Clouds Few 4000 ft
Scattered Clouds 7500 ft
Scattered Clouds 12000 ft
Heat Index 72 °F
Dew Point 70 °F
Humidity 88%
Rainfall 0.00 in
Snow Depth Not available.
UV 0.0 out of 12
Pollen 2.70 out of 12
Air Quality Not available.
Flu Activity Not available.
METAR KRDU 070551Z 22005KT 10SM FEW040 SCT075 SCT120 23/19 A3008 RMK AO2 SLP180 T02330189 10289 20228 58002 $

More Conditions Fewer Conditions

10-Day Weather Forecast

×

Almanac

Astronomy

Jul. 07, 2015 Rise Set
Actual Time
Civil Twilight
Nautical Twilight
Astronomical Twilight
Moon
Length of Visible Light
Length of Day
Tomorrow will be .
, % of the Moon is Illuminated

Today's Extremes

State Highs State Lows

Community

WunderPhotos

Upload Photos

1,835,740 photos uploaded!

WunderBlogs® & News

Nearby

Air Quality

  Air Quality AQ Index Pollutant
Not available.

Snow Depth

Station Depth Elevation

Earthquake Activity

City Distance Mag. Time & Date
Minimum magnitude displayed is 2.5.

Coastal Water Temperatures

Place Temperature

Stations

Nearby Weather Stations

Station Location Temp. Windchill Dew Point Humidity Wind Precip. Elev Updated Type